Time;durP1;ratioP1;P1;durP2;ratioP2;P2;SDS_P1;SDS_P2;PMS_P1;PMS_P2;Temp;Humidity;BMP_temperature;BMP_pressure;BME280_temperature;BME280_humidity;BME280_pressure;Samples;Min_cycle;Max_cycle;Signal;HPM_P1;HPM_P2
2020/12/11 00:02:08;;;;;;;2.53;0.90;;;;;;;9.70;86.52;99564.72;5073548;28;20489;-75
2020/12/11 00:04:33;;;;;;;2.67;1.05;;;;;;;9.60;87.15;99552.44;5073088;28;20037;-75
2020/12/11 00:07:01;;;;;;;3.80;1.05;;;;;;;9.64;87.55;99564.56;5073235;28;20021;-75
2020/12/11 00:09:28;;;;;;;4.85;1.00;;;;;;;9.59;87.41;99558.44;5055445;28;20036;-76
2020/12/11 00:11:54;;;;;;;0.63;0.60;;;;;;;9.53;87.60;99556.56;5073162;28;20584;-74
2020/12/11 00:14:20;;;;;;;3.53;0.90;;;;;;;9.53;87.54;99560.03;5055712;28;20028;-76
2020/12/11 00:16:45;;;;;;;1.08;0.73;;;;;;;9.52;87.99;99558.28;5054938;28;20028;-76
2020/12/11 00:19:11;;;;;;;1.58;0.63;;;;;;;9.41;88.04;99557.13;5072843;28;20035;-77
2020/12/11 00:21:41;;;;;;;1.05;0.50;;;;;;;9.29;88.11;99523.28;5072901;28;20470;-74
2020/12/11 00:24:07;;;;;;;0.52;0.40;;;;;;;9.52;87.63;99570.25;5073503;28;20466;-73
2020/12/11 00:26:32;;;;;;;1.05;0.55;;;;;;;9.53;87.59;99569.44;5073219;28;20111;-74
2020/12/11 00:28:58;;;;;;;0.50;0.50;;;;;;;9.46;87.99;99573.56;5073511;28;20044;-72
2020/12/11 00:31:24;;;;;;;2.33;0.88;;;;;;;9.48;87.77;99569.34;5072961;28;20021;-72
2020/12/11 00:33:50;;;;;;;1.00;0.60;;;;;;;9.47;87.56;99572.72;5073346;28;20523;-71
2020/12/11 00:36:17;;;;;;;0.98;0.57;;;;;;;9.55;87.22;99570.34;5073407;28;20032;-73
2020/12/11 00:38:43;;;;;;;0.65;0.60;;;;;;;9.45;86.92;99550.34;5073391;28;20427;-75
2020/12/11 00:41:08;;;;;;;1.92;0.75;;;;;;;9.56;87.10;99572.09;5073189;28;20027;-77
2020/12/11 00:43:35;;;;;;;2.78;0.75;;;;;;;9.52;87.21;99560.84;5073510;28;20024;-80
2020/12/11 00:46:01;;;;;;;2.95;0.80;;;;;;;9.50;86.88;99564.22;5058338;28;20024;-73
2020/12/11 00:48:26;;;;;;;0.65;0.55;;;;;;;9.45;87.02;99558.94;5073318;28;20028;-74
2020/12/11 00:50:52;;;;;;;0.82;0.50;;;;;;;9.49;87.60;99572.78;5072792;28;20035;-74
2020/12/11 00:53:17;;;;;;;1.65;0.88;;;;;;;9.48;87.59;99560.72;5069402;28;20039;-75
2020/12/11 00:55:43;;;;;;;2.03;0.73;;;;;;;9.53;87.58;99579.75;5073061;28;20071;-77
2020/12/11 00:58:08;;;;;;;1.05;0.60;;;;;;;9.47;87.60;99567.59;5073128;28;20501;-73
2020/12/11 01:00:34;;;;;;;1.45;0.68;;;;;;;9.50;87.97;99580.53;5073077;28;20111;-74
2020/12/11 01:02:59;;;;;;;1.92;0.80;;;;;;;9.43;88.03;99581.19;5072845;28;20036;-73
2020/12/11 01:05:25;;;;;;;0.75;0.63;;;;;;;9.34;88.05;99562.91;5073094;28;20024;-73
2020/12/11 01:07:51;;;;;;;0.70;0.63;;;;;;;9.44;88.14;99582.94;5072998;28;20379;-74
2020/12/11 01:10:16;;;;;;;2.83;0.80;;;;;;;9.42;88.46;99579.47;5072449;28;20096;-77
2020/12/11 01:12:42;;;;;;;1.50;0.70;;;;;;;9.24;88.49;99548.91;5072651;28;20119;-77
2020/12/11 01:15:07;;;;;;;1.20;0.70;;;;;;;9.46;88.25;99577.81;5072378;28;20486;-73
2020/12/11 01:17:33;;;;;;;2.33;0.80;;;;;;;9.44;88.19;99577.78;5072720;28;20036;-73
2020/12/11 01:19:58;;;;;;;1.45;1.15;;;;;;;9.42;88.78;99583.72;5072790;28;20036;-73
2020/12/11 01:22:23;;;;;;;1.17;0.80;;;;;;;9.38;88.76;99578.50;5054404;28;20474;-71
2020/12/11 01:24:49;;;;;;;2.22;1.50;;;;;;;9.48;88.85;99587.38;5072245;28;20028;-74
2020/12/11 01:27:14;;;;;;;1.60;0.90;;;;;;;9.49;88.81;99591.66;5072476;28;20024;-73
2020/12/11 01:29:40;;;;;;;1.52;0.90;;;;;;;9.53;88.26;99574.59;5070958;28;20027;-78
2020/12/11 01:32:05;;;;;;;0.93;0.80;;;;;;;9.59;88.39;99586.78;5058247;28;20024;-73
2020/12/11 01:34:31;;;;;;;1.15;0.90;;;;;;;9.49;88.51;99571.06;5072336;28;20020;-77
2020/12/11 01:37:02;;;;;;;1.85;0.90;;;;;;;9.58;88.64;99582.44;5072387;28;20584;-74
2020/12/11 01:39:27;;;;;;;1.75;1.05;;;;;;;9.54;88.65;99579.81;5071772;28;20482;-77
2020/12/11 01:41:53;;;;;;;2.00;0.93;;;;;;;9.54;88.89;99569.50;5072297;28;20066;-73
2020/12/11 01:44:18;;;;;;;2.70;1.58;;;;;;;9.54;88.68;99576.34;5072398;28;20028;-78
2020/12/11 01:46:44;;;;;;;2.00;1.20;;;;;;;9.59;88.85;99576.47;5059083;28;20036;-82
2020/12/11 01:49:11;;;;;;;2.38;1.40;;;;;;;9.61;88.69;99574.78;5052822;28;20084;-76
2020/12/11 01:51:38;;;;;;;3.40;1.35;;;;;;;9.63;88.55;99567.97;5071702;28;20028;-77
2020/12/11 01:54:04;;;;;;;3.42;1.48;;;;;;;9.41;88.79;99539.06;5071555;28;20024;-76
2020/12/11 01:56:39;;;;;;;2.35;1.40;;;;;;;9.36;88.71;99528.66;5070847;28;20037;-78
2020/12/11 01:59:12;;;;;;;2.22;1.33;;;;;;;9.60;88.97;99561.03;5053470;28;20024;-75
2020/12/11 02:01:38;;;;;;;3.88;1.42;;;;;;;9.56;88.59;99546.34;5070971;28;20107;-84
2020/12/11 02:04:06;;;;;;;2.47;1.35;;;;;;;9.75;88.47;99565.72;5069336;28;20052;-74
2020/12/11 02:06:33;;;;;;;3.63;1.50;;;;;;;9.85;87.99;99561.66;5057477;28;20506;-76
2020/12/11 02:08:59;;;;;;;3.40;1.45;;;;;;;9.79;87.64;99539.19;5053136;28;20112;-78
2020/12/11 02:11:24;;;;;;;3.67;1.38;;;;;;;10.03;87.20;99566.41;5055379;28;20032;-75
2020/12/11 02:13:51;;;;;;;1.63;1.23;;;;;;;9.95;87.29;99562.78;5053340;28;20039;-74
2020/12/11 02:16:21;;;;;;;2.90;1.35;;;;;;;9.81;88.24;99577.91;5071243;28;20040;-76
2020/12/11 02:18:47;;;;;;;5.30;2.80;;;;;;;9.54;89.23;99578.91;5071502;28;20379;-75
2020/12/11 02:21:12;;;;;;;9.63;4.45;;;;;;;8.83;90.55;99570.06;5071426;28;20055;-74
2020/12/11 02:23:38;;;;;;;11.65;8.13;;;;;;;8.29;92.04;99545.28;5071301;28;20033;-73
2020/12/11 02:26:03;;;;;;;13.27;8.20;;;;;;;7.92;92.54;99547.56;5068919;28;20037;-75
2020/12/11 02:28:33;;;;;;;13.30;8.75;;;;;;;8.00;92.94;99588.03;5055363;28;20041;-76
2020/12/11 02:31:00;;;;;;;14.73;9.50;;;;;;;8.00;93.04;99596.63;5052921;28;20021;-74
2020/12/11 02:33:26;;;;;;;12.57;8.95;;;;;;;7.88;92.18;99583.38;5035148;28;20052;-71
2020/12/11 02:35:51;;;;;;;13.25;7.80;;;;;;;7.82;92.49;99591.75;5033184;28;20041;-74
2020/12/11 02:38:17;;;;;;;12.48;7.18;;;;;;;7.66;92.08;99589.47;5055361;28;20033;-73
2020/12/11 02:40:59;;;;;;;12.30;6.47;;;;;;;7.69;92.33;99598.16;5053229;28;20021;-75
2020/12/11 02:43:25;;;;;;;8.60;5.82;;;;;;;7.63;92.19;99595.38;5060233;28;20041;-75
2020/12/11 02:45:52;;;;;;;7.20;5.10;;;;;;;7.59;91.67;99596.97;5071044;28;20391;-75
2020/12/11 02:48:17;;;;;;;8.73;4.07;;;;;;;7.61;90.94;99610.75;5070944;28;20028;-78
2020/12/11 02:50:43;;;;;;;6.57;4.68;;;;;;;7.59;91.29;99603.81;5071104;28;20029;-73
2020/12/11 02:53:08;;;;;;;6.43;3.75;;;;;;;7.44;90.50;99604.16;5052016;28;20063;-75
2020/12/11 02:55:34;;;;;;;6.22;4.07;;;;;;;7.52;89.84;99600.13;5070791;28;20520;-73
2020/12/11 02:58:00;;;;;;;4.95;3.05;;;;;;;7.48;90.04;99615.38;5051030;28;20029;-74
2020/12/11 03:00:26;;;;;;;4.43;2.83;;;;;;;7.40;89.54;99609.97;5053197;28;20021;-75
2020/12/11 03:02:51;;;;;;;5.18;3.30;;;;;;;7.36;90.32;99614.13;5053769;28;20040;-73
2020/12/11 03:05:17;;;;;;;4.70;2.60;;;;;;;7.09;89.82;99562.66;5053037;28;20482;-76
2020/12/11 03:07:42;;;;;;;5.68;2.85;;;;;;;7.36;89.93;99605.56;5051527;28;20021;-73
2020/12/11 03:10:08;;;;;;;4.32;2.60;;;;;;;7.35;89.46;99604.69;5053589;28;20139;-74
2020/12/11 03:12:34;;;;;;;5.78;3.03;;;;;;;7.41;89.60;99601.47;5035247;28;20029;-74
2020/12/11 03:14:59;;;;;;;5.05;2.78;;;;;;;7.37;90.04;99589.34;5069152;28;20064;-74
2020/12/11 03:17:24;;;;;;;3.75;2.33;;;;;;;7.52;89.07;99595.00;5054706;28;20028;-74
2020/12/11 03:19:50;;;;;;;4.38;2.47;;;;;;;7.46;88.58;99589.66;5055635;28;20467;-77
2020/12/11 03:22:16;;;;;;;4.80;2.88;;;;;;;7.41;88.79;99594.66;5051389;28;20484;-74
2020/12/11 03:24:42;;;;;;;4.20;2.42;;;;;;;7.64;88.76;99602.28;5049554;28;20036;-74
2020/12/11 03:27:07;;;;;;;4.40;2.70;;;;;;;7.69;88.03;99605.88;5055543;28;20147;-73
2020/12/11 03:29:33;;;;;;;4.63;2.75;;;;;;;7.74;88.67;99612.03;5054231;28;20025;-75
2020/12/11 03:31:58;;;;;;;4.72;2.63;;;;;;;7.85;87.64;99612.41;5054034;28;20467;-76
2020/12/11 03:34:24;;;;;;;3.83;2.35;;;;;;;7.87;86.56;99610.75;5038714;28;20087;-76
2020/12/11 03:36:49;;;;;;;3.95;2.00;;;;;;;7.87;86.29;99620.19;5056229;28;20039;-76
2020/12/11 03:39:15;;;;;;;4.30;2.17;;;;;;;7.75;86.71;99624.06;5054288;28;20444;-77
2020/12/11 03:41:40;;;;;;;4.53;2.15;;;;;;;7.75;86.32;99602.63;5074750;28;20025;-77
2020/12/11 03:44:06;;;;;;;4.05;2.28;;;;;;;7.90;85.49;99623.72;5074446;28;20393;-77
2020/12/11 03:46:31;;;;;;;4.20;2.53;;;;;;;7.97;85.63;99622.22;5074168;28;20074;-77
2020/12/11 03:48:59;;;;;;;5.53;2.40;;;;;;;7.88;84.96;99585.94;5064076;28;20028;-76
2020/12/11 03:51:25;;;;;;;3.20;1.90;;;;;;;8.20;83.86;99627.25;5072962;28;20032;-76
2020/12/11 03:53:51;;;;;;;3.72;1.83;;;;;;;8.17;84.47;99615.16;5074080;28;20036;-76
2020/12/11 03:56:19;;;;;;;3.13;2.08;;;;;;;8.35;83.33;99619.16;5073894;28;20426;-76
2020/12/11 03:58:45;;;;;;;3.33;1.83;;;;;;;8.43;83.38;99636.59;5073787;28;20440;-77
2020/12/11 04:01:12;;;;;;;4.07;1.85;;;;;;;8.44;83.07;99629.75;5055981;28;20497;-77
2020/12/11 04:03:38;;;;;;;2.63;1.50;;;;;;;8.46;82.02;99640.09;5035461;28;20079;-77
2020/12/11 04:06:08;;;;;;;4.13;1.90;;;;;;;8.46;81.51;99630.72;5054986;28;20498;-78
2020/12/11 04:08:34;;;;;;;3.33;2.20;;;;;;;8.41;81.10;99621.94;5054465;28;20510;-77
2020/12/11 04:11:03;;;;;;;2.83;1.80;;;;;;;8.45;81.78;99630.63;5037449;28;20032;-77
2020/12/11 04:13:29;;;;;;;2.38;1.58;;;;;;;8.54;80.59;99641.25;5056946;28;20025;-75
2020/12/11 04:15:54;;;;;;;2.20;1.55;;;;;;;8.57;80.78;99634.50;5054666;28;20033;-77
2020/12/11 04:18:20;;;;;;;4.05;1.70;;;;;;;8.55;81.15;99635.28;5055579;28;20032;-77
2020/12/11 04:20:45;;;;;;;3.88;1.98;;;;;;;8.47;81.40;99641.88;5053209;28;20028;-76
2020/12/11 04:23:11;;;;;;;3.55;1.95;;;;;;;8.32;82.35;99625.09;5045156;28;20033;-77
2020/12/11 04:25:36;;;;;;;3.08;2.00;;;;;;;8.32;82.24;99639.66;5054981;28;20441;-76
2020/12/11 04:28:01;;;;;;;2.28;1.42;;;;;;;7.93;82.98;99630.66;5055277;28;20029;-77
2020/12/11 04:30:27;;;;;;;2.28;1.50;;;;;;;7.76;83.82;99633.53;5056724;28;20516;-77
2020/12/11 04:32:52;;;;;;;2.75;1.77;;;;;;;7.80;84.33;99639.66;5054074;28;20123;-78
2020/12/11 04:35:18;;;;;;;3.20;1.80;;;;;;;7.82;84.93;99632.00;5054403;28;20021;-77
2020/12/11 04:37:43;;;;;;;3.20;1.90;;;;;;;7.78;85.02;99633.59;5055531;28;20028;-77
2020/12/11 04:40:09;;;;;;;2.15;1.70;;;;;;;7.67;85.04;99632.34;5036596;28;20033;-75
2020/12/11 04:42:35;;;;;;;3.42;1.60;;;;;;;7.83;84.56;99638.88;5054453;28;20116;-77
2020/12/11 04:45:00;;;;;;;2.97;1.75;;;;;;;7.85;84.38;99627.84;5035179;28;20127;-76
2020/12/11 04:47:26;;;;;;;3.22;1.40;;;;;;;7.97;82.40;99635.06;5052784;28;20079;-78
2020/12/11 04:49:52;;;;;;;1.45;1.10;;;;;;;8.05;82.11;99643.94;5057468;28;20452;-77
2020/12/11 04:52:19;;;;;;;2.00;1.25;;;;;;;8.17;82.10;99658.03;5054536;28;20090;-77
2020/12/11 04:54:48;;;;;;;5.38;3.67;;;;;;;8.24;81.68;99655.69;5058702;28;20028;-77
2020/12/11 04:57:21;;;;;;;3.47;2.20;;;;;;;8.33;81.09;99657.69;5066267;28;20077;-76
2020/12/11 04:59:50;;;;;;;4.95;2.45;;;;;;;8.31;81.11;99637.91;5070769;28;20031;-76
2020/12/11 05:02:17;;;;;;;4.57;1.87;;;;;;;8.38;79.67;99634.72;5072751;28;20081;-74
2020/12/11 05:04:42;;;;;;;3.65;2.40;;;;;;;8.54;80.32;99657.56;5054824;28;20274;-77
2020/12/11 05:07:08;;;;;;;5.05;2.38;;;;;;;8.68;79.67;99670.84;5066862;28;20033;-78
2020/12/11 05:09:33;;;;;;;3.90;2.60;;;;;;;8.61;79.76;99663.78;5055010;28;20048;-77
2020/12/11 05:11:59;;;;;;;3.55;1.80;;;;;;;8.52;80.55;99674.66;5056371;28;20382;-78
2020/12/11 05:14:27;;;;;;;3.47;2.45;;;;;;;8.43;80.49;99676.88;5052425;28;20021;-77
2020/12/11 05:17:01;;;;;;;28.50;25.70;;;;;;;8.45;80.83;99672.66;5035050;28;20032;-77
2020/12/11 05:19:29;;;;;;;20.48;18.42;;;;;;;8.41;81.29;99679.41;5052254;28;20028;-76
2020/12/11 05:22:07;;;;;;;5.28;3.72;;;;;;;8.21;81.74;99688.13;5054813;28;20040;-76
2020/12/11 05:24:43;;;;;;;3.50;2.10;;;;;;;8.02;82.93;99697.78;5054257;28;20115;-76
2020/12/11 05:27:41;;;;;;;4.93;2.50;;;;;;;7.97;83.51;99693.34;5037413;28;20025;-77
2020/12/11 05:30:15;;;;;;;4.13;2.40;;;;;;;7.80;83.27;99664.47;5054000;28;20112;-76
2020/12/11 05:32:47;;;;;;;6.35;2.10;;;;;;;8.07;82.33;99695.38;5052597;28;20112;-76
2020/12/11 05:35:25;;;;;;;2.25;1.77;;;;;;;8.09;81.88;99709.19;5051509;28;20474;-74
2020/12/11 05:38:02;;;;;;;3.15;1.50;;;;;;;8.07;81.71;99701.44;5051498;28;20063;-75
2020/12/11 05:40:38;;;;;;;3.22;2.05;;;;;;;8.01;82.30;99708.94;5051899;28;20021;-75
2020/12/11 05:43:04;;;;;;;2.88;1.63;;;;;;;7.89;82.20;99681.09;5051740;28;20032;-78
2020/12/11 05:45:30;;;;;;;3.67;1.30;;;;;;;7.82;82.01;99673.97;5051549;28;20029;-74
2020/12/11 05:47:59;;;;;;;3.67;1.42;;;;;;;8.11;82.12;99712.66;5052709;28;20457;-77
2020/12/11 05:50:24;;;;;;;4.25;1.90;;;;;;;8.10;82.41;99723.78;5033224;28;20033;-75
2020/12/11 05:52:53;;;;;;;2.20;1.60;;;;;;;7.98;82.78;99715.66;5050995;28;20024;-75
2020/12/11 05:55:20;;;;;;;4.57;1.77;;;;;;;7.96;83.28;99723.28;5059397;28;20040;-76
2020/12/11 05:57:46;;;;;;;2.70;1.70;;;;;;;7.88;81.23;99728.16;5070698;28;20055;-74
2020/12/11 06:00:12;;;;;;;4.30;2.40;;;;;;;7.75;83.25;99723.38;5070624;28;20020;-77
2020/12/11 06:02:39;;;;;;;7.40;3.15;;;;;;;7.78;83.08;99718.38;5049493;28;20032;-76
2020/12/11 06:05:06;;;;;;;4.70;2.58;;;;;;;7.90;83.25;99739.38;5057025;28;20111;-77
2020/12/11 06:07:34;;;;;;;10.98;6.13;;;;;;;7.86;83.06;99737.53;5069551;28;20063;-76
2020/12/11 06:10:04;;;;;;;9.40;5.10;;;;;;;7.89;83.08;99750.47;5051480;28;20032;-74
2020/12/11 06:12:31;;;;;;;9.70;5.13;;;;;;;7.82;83.49;99748.50;5070569;28;20036;-74
2020/12/11 06:15:10;;;;;;;9.15;4.10;;;;;;;7.85;83.31;99751.19;5070261;28;20478;-76
2020/12/11 06:17:46;;;;;;;6.07;3.85;;;;;;;7.95;82.50;99762.69;5070236;28;20549;-76
2020/12/11 06:20:15;;;;;;;5.65;4.22;;;;;;;7.91;82.51;99755.66;5070363;28;20020;-78
2020/12/11 06:22:44;;;;;;;3.58;2.15;;;;;;;7.93;82.04;99767.75;5065189;28;20033;-76
2020/12/11 06:25:28;;;;;;;3.13;2.42;;;;;;;7.85;82.53;99764.03;5054357;28;20021;-76
2020/12/11 06:27:55;;;;;;;3.55;1.77;;;;;;;7.59;82.45;99738.25;5051165;28;20037;-74
2020/12/11 06:30:25;;;;;;;6.85;5.43;;;;;;;7.81;82.78;99763.88;5052638;28;20024;-77
2020/12/11 06:32:50;;;;;;;4.18;3.17;;;;;;;7.94;82.77;99769.50;5008304;28;717051;-76
2020/12/11 06:35:17;;;;;;;3.35;2.00;;;;;;;7.93;81.77;99774.59;5053434;28;20131;-74
2020/12/11 06:37:43;;;;;;;7.00;4.55;;;;;;;7.99;82.38;99779.06;5071031;28;20120;-76
2020/12/11 06:40:08;;;;;;;7.40;4.10;;;;;;;7.93;81.55;99775.44;5053166;28;20495;-76
2020/12/11 06:42:38;;;;;;;5.00;2.83;;;;;;;7.75;81.99;99749.09;5071111;28;20029;-73
2020/12/11 06:45:25;;;;;;;3.88;2.65;;;;;;;8.01;82.08;99788.59;5068401;28;20035;-76
2020/12/11 06:47:56;;;;;;;4.28;2.95;;;;;;;7.97;81.98;99797.00;5072278;28;20024;-75
2020/12/11 06:50:28;;;;;;;4.47;3.03;;;;;;;8.01;81.80;99792.84;5047975;28;20025;-75
2020/12/11 06:52:55;;;;;;;7.82;4.00;;;;;;;7.98;82.03;99795.34;5070080;28;20604;-76
2020/12/11 06:55:20;;;;;;;7.80;3.90;;;;;;;7.88;82.24;99796.69;5070662;28;20021;-76
2020/12/11 06:57:47;;;;;;;5.03;3.50;;;;;;;7.97;82.69;99806.44;5070619;28;20505;-78
2020/12/11 07:00:29;;;;;;;6.88;3.83;;;;;;;7.93;82.24;99806.28;5069658;28;20093;-76
2020/12/11 07:03:14;;;;;;;6.47;4.05;;;;;;;7.97;82.52;99806.44;5049678;28;20028;-81
2020/12/11 07:05:40;;;;;;;7.53;4.15;;;;;;;7.94;82.20;99810.63;5067887;28;20071;-76
2020/12/11 07:08:16;;;;;;;9.55;6.47;;;;;;;7.99;82.86;99803.09;5035213;28;20045;-79
2020/12/11 07:10:46;;;;;;;6.63;4.88;;;;;;;7.92;83.91;99801.09;5047900;28;20505;-80
2020/12/11 07:13:12;;;;;;;5.78;3.75;;;;;;;7.96;83.28;99791.81;5048861;28;20017;-79
2020/12/11 07:15:38;;;;;;;8.20;3.80;;;;;;;8.12;83.49;99801.81;5057585;28;20040;-77
2020/12/11 07:18:11;;;;;;;5.25;3.30;;;;;;;8.16;83.34;99805.38;5068672;28;20111;-78
2020/12/11 07:20:36;;;;;;;14.05;9.50;;;;;;;8.08;84.07;99797.41;5069987;28;20032;-77
2020/12/11 07:23:03;;;;;;;6.07;4.25;;;;;;;8.26;83.21;99813.50;5071374;28;20017;-77
2020/12/11 07:25:29;;;;;;;5.78;3.78;;;;;;;8.34;83.66;99812.91;5048024;28;20045;-77
2020/12/11 07:28:02;;;;;;;5.40;2.78;;;;;;;8.14;84.36;99819.88;5049742;28;20714;-76
2020/12/11 07:30:28;;;;;;;3.90;2.90;;;;;;;7.88;86.76;99825.81;5050693;28;20033;-77
2020/12/11 07:32:54;;;;;;;4.47;2.80;;;;;;;7.81;88.16;99831.53;5049574;28;20052;-77
2020/12/11 07:35:21;;;;;;;3.38;2.50;;;;;;;7.67;89.04;99830.16;5050692;28;20040;-77
2020/12/11 07:37:55;;;;;;;4.55;3.28;;;;;;;7.41;89.75;99822.31;5050600;28;20033;-76
2020/12/11 07:40:22;;;;;;;4.65;2.83;;;;;;;7.42;90.83;99847.19;5050565;28;20037;-77
2020/12/11 07:42:49;;;;;;;5.05;3.42;;;;;;;7.45;91.63;99847.28;5050526;28;20029;-77
2020/12/11 07:45:34;;;;;;;4.65;2.95;;;;;;;7.36;91.93;99834.97;5076937;28;20024;-77
2020/12/11 07:48:00;;;;;;;4.18;3.03;;;;;;;7.47;91.88;99847.38;5089837;28;20394;-77
2020/12/11 07:50:28;;;;;;;4.88;3.28;;;;;;;7.57;92.51;99844.34;5072629;28;20036;-76
2020/12/11 07:52:56;;;;;;;4.47;3.10;;;;;;;7.56;92.74;99850.28;5072431;28;20027;-77
2020/12/11 07:55:23;;;;;;;5.40;3.90;;;;;;;7.63;93.07;99831.72;5090431;28;20032;-77
2020/12/11 07:57:50;;;;;;;5.75;4.10;;;;;;;7.80;93.96;99847.81;5090703;28;20027;-77
2020/12/11 08:00:16;;;;;;;5.60;4.13;;;;;;;7.92;94.34;99850.84;5092438;28;20642;-77
2020/12/11 08:02:41;;;;;;;6.25;3.72;;;;;;;7.91;93.39;99849.06;5094395;28;20144;-77
2020/12/11 08:05:08;;;;;;;4.53;2.92;;;;;;;7.78;92.95;99827.16;5094556;28;20469;-76
2020/12/11 08:07:34;;;;;;;3.58;2.47;;;;;;;7.93;92.27;99873.13;5093926;28;20111;-76
2020/12/11 08:10:10;;;;;;;3.80;2.20;;;;;;;8.03;92.06;99866.63;5093142;28;20067;-77
2020/12/11 08:12:36;;;;;;;3.33;2.40;;;;;;;8.14;92.10;99867.03;5093053;28;20051;-77
2020/12/11 08:15:03;;;;;;;3.30;2.33;;;;;;;8.22;90.99;99870.78;5093033;28;20028;-77
2020/12/11 08:17:33;;;;;;;4.63;2.50;;;;;;;8.29;91.32;99865.84;5093349;28;20085;-77
2020/12/11 08:20:01;;;;;;;3.03;1.98;;;;;;;8.47;89.89;99868.25;5093449;28;20028;-77
2020/12/11 08:22:35;;;;;;;4.47;2.67;;;;;;;8.43;90.21;99831.22;5093458;28;20077;-76
2020/12/11 08:25:16;;;;;;;3.50;2.28;;;;;;;8.64;88.31;99853.41;5092409;28;20027;-77
2020/12/11 08:27:42;;;;;;;3.28;1.90;;;;;;;8.66;87.64;99864.63;5092612;28;20020;-77
2020/12/11 08:30:14;;;;;;;3.03;2.00;;;;;;;8.71;87.87;99861.41;5079557;28;20025;-76
2020/12/11 08:32:40;;;;;;;4.28;3.17;;;;;;;8.80;87.52;99862.50;5078086;28;20134;-77
2020/12/11 08:35:20;;;;;;;4.50;2.42;;;;;;;8.97;87.57;99853.69;5092268;28;20039;-77
2020/12/11 08:37:52;;;;;;;2.22;1.60;;;;;;;9.17;86.32;99862.06;5091651;28;20070;-77
2020/12/11 08:40:18;;;;;;;2.70;1.50;;;;;;;9.22;85.16;99867.34;5092183;28;20569;-77
2020/12/11 08:43:14;;;;;;;2.60;1.55;;;;;;;9.27;84.06;99855.53;5074833;28;20119;-77
2020/12/11 08:51:02;;;;;;;9.60;6.20;;;;;;;9.58;84.85;99856.47;5049510;28;20236;-77
2020/12/11 08:53:34;;;;;;;4.03;2.55;;;;;;;9.68;84.61;99844.75;5049801;28;20060;-77
2020/12/11 08:55:59;;;;;;;3.38;1.52;;;;;;;9.82;83.84;99847.72;5049844;28;20049;-77
2020/12/11 08:58:25;;;;;;;4.45;2.42;;;;;;;9.94;82.32;99848.09;5050612;28;20383;-77
2020/12/11 09:00:50;;;;;;;4.00;2.00;;;;;;;9.99;81.47;99843.06;5050017;28;20040;-77
2020/12/11 09:03:15;;;;;;;2.53;1.50;;;;;;;10.02;80.96;99850.91;5049496;28;20037;-77
2020/12/11 09:05:41;;;;;;;4.30;2.70;;;;;;;10.02;80.94;99836.31;5050607;28;20033;-77
2020/12/11 09:08:07;;;;;;;1.20;1.05;;;;;;;9.95;79.28;99854.13;5049134;28;20411;-77
2020/12/11 09:10:32;;;;;;;2.40;1.33;;;;;;;10.11;80.43;99840.84;5050122;28;20033;-77
2020/12/11 09:12:57;;;;;;;5.88;3.30;;;;;;;10.22;80.00;99828.28;5050377;28;20103;-77
2020/12/11 09:15:23;;;;;;;3.80;2.20;;;;;;;10.41;78.58;99849.47;5050244;28;20041;-77
2020/12/11 09:17:49;;;;;;;3.50;1.83;;;;;;;10.50;80.08;99844.53;5033294;28;20036;-77
2020/12/11 09:20:14;;;;;;;2.33;1.60;;;;;;;10.26;78.50;99788.81;5049697;28;20099;-77
2020/12/11 09:22:40;;;;;;;3.53;2.38;;;;;;;10.78;79.35;99842.66;5049874;28;20037;-77
2020/12/11 09:25:06;;;;;;;3.08;1.85;;;;;;;10.86;78.35;99837.72;5049676;28;20033;-77
2020/12/11 09:27:32;;;;;;;2.50;1.67;;;;;;;10.73;77.08;99828.78;5059363;28;20052;-77
2020/12/11 09:30:12;;;;;;;1.80;1.23;;;;;;;10.71;77.94;99823.56;5071679;28;20025;-77
2020/12/11 09:32:49;;;;;;;0.82;0.82;;;;;;;10.79;77.23;99836.69;5070355;28;20044;-78
2020/12/11 09:35:15;;;;;;;2.85;2.30;;;;;;;10.61;78.71;99806.97;5072022;28;20111;-76
2020/12/11 09:37:41;;;;;;;1.48;1.20;;;;;;;10.77;76.96;99841.81;5070319;28;20033;-77
2020/12/11 09:40:06;;;;;;;1.75;1.30;;;;;;;10.84;76.53;99832.50;5070354;28;20474;-77
2020/12/11 09:45:33;;;;;;;3.08;1.40;;;;;;;11.27;74.30;99830.13;4968754;28;20046;-77
2020/12/11 09:48:16;;;;;;;1.88;1.40;;;;;;;11.35;73.22;99825.13;4950158;28;20464;-77
2020/12/11 09:55:48;;;;;;;2.05;1.40;;;;;;;11.78;72.03;99824.38;4969776;28;20473;-77
2020/12/11 09:58:14;;;;;;;3.03;1.17;;;;;;;11.77;73.03;99829.53;4968588;28;20031;-77
2020/12/11 10:00:42;;;;;;;1.50;1.10;;;;;;;11.89;72.56;99822.03;4970222;28;20527;-76
2020/12/11 10:03:11;;;;;;;4.35;1.52;;;;;;;11.94;72.96;99816.97;4970730;28;20026;-75
2020/12/11 10:05:37;;;;;;;2.85;1.42;;;;;;;11.86;71.30;99821.94;4969679;28;20097;-77
2020/12/11 10:08:02;;;;;;;2.22;1.30;;;;;;;11.92;71.78;99822.06;4969563;28;20030;-77
2020/12/11 10:10:28;;;;;;;5.55;1.42;;;;;;;12.08;69.78;99812.09;4970009;28;20090;-77
2020/12/11 10:12:53;;;;;;;3.13;1.80;;;;;;;12.25;69.29;99815.00;4969706;28;20022;-77
2020/12/11 10:15:22;;;;;;;2.03;1.20;;;;;;;12.38;69.03;99817.00;4968468;28;20113;-77
2020/12/11 10:17:49;;;;;;;1.55;1.40;;;;;;;12.42;69.83;99807.56;4961813;28;20059;-77
2020/12/11 10:20:20;;;;;;;1.65;1.10;;;;;;;12.31;70.50;99807.34;4968797;28;20070;-76
2020/12/11 10:22:49;;;;;;;2.70;1.15;;;;;;;11.75;72.00;99816.56;5053442;28;20040;-77
2020/12/11 10:25:19;;;;;;;4.57;2.00;;;;;;;11.96;71.78;99807.53;5066472;28;20021;-76
2020/12/11 10:27:44;;;;;;;5.28;2.80;;;;;;;12.06;67.90;99804.31;4984563;28;20026;-77
2020/12/11 10:30:10;;;;;;;1.65;1.17;;;;;;;12.07;66.07;99807.75;4988988;28;20170;-76
2020/12/11 10:32:36;;;;;;;2.38;1.50;;;;;;;11.95;66.06;99800.56;4983500;28;20082;-77
2020/12/11 10:35:02;;;;;;;3.85;1.85;;;;;;;12.12;66.70;99813.91;4980447;28;20038;-77
2020/12/11 10:37:27;;;;;;;4.20;2.20;;;;;;;12.21;67.74;99808.91;4981830;28;20054;-74
2020/12/11 10:39:54;;;;;;;5.53;2.80;;;;;;;11.97;68.44;99807.59;4982781;28;20153;-76
2020/12/11 10:42:20;;;;;;;7.43;4.43;;;;;;;12.07;66.53;99795.69;4978529;28;20405;-76
2020/12/11 10:44:46;;;;;;;27.10;16.13;;;;;;;11.81;66.42;99762.38;4982298;28;20092;-76
2020/12/11 10:47:11;;;;;;;29.02;14.88;;;;;;;12.25;66.39;99789.13;4982215;28;20548;-76
2020/12/11 10:49:37;;;;;;;38.90;18.50;;;;;;;12.51;64.60;99784.44;4983479;28;20060;-76
2020/12/11 10:52:02;;;;;;;40.65;20.90;;;;;;;12.62;64.28;99792.38;4982747;28;20066;-76
2020/12/11 10:54:28;;;;;;;61.72;33.08;;;;;;;12.48;64.66;99792.16;4981789;28;20481;-77
2020/12/11 10:56:57;;;;;;;46.75;24.52;;;;;;;12.27;63.89;99797.78;4980586;28;20029;-77
2020/12/11 10:59:23;;;;;;;21.98;11.00;;;;;;;12.05;64.80;99801.66;5031824;28;20033;-76
2020/12/11 11:01:50;;;;;;;25.20;13.23;;;;;;;12.14;65.46;99794.97;5049845;28;20186;-77
2020/12/11 11:04:16;;;;;;;7.93;4.40;;;;;;;12.46;63.03;99799.91;5049088;28;20025;-76
2020/12/11 11:06:56;;;;;;;7.07;4.10;;;;;;;12.29;63.69;99786.63;5047343;28;20025;-76
2020/12/11 11:15:05;;;;;;;4.72;2.92;;;;;;;12.77;62.68;99782.31;5049924;28;20089;-78
2020/12/11 11:27:52;;;;;;;4.90;2.85;;;;;;;12.92;59.76;99757.50;5048333;28;20036;-78
2020/12/11 11:30:19;;;;;;;4.10;2.95;;;;;;;12.98;59.68;99757.59;5033306;28;20017;-78
2020/12/11 11:32:45;;;;;;;5.57;3.92;;;;;;;12.71;60.64;99740.78;5057375;28;20056;-75
2020/12/11 11:35:10;;;;;;;6.15;3.60;;;;;;;12.88;59.64;99758.28;5054831;28;20533;-79
2020/12/11 11:37:36;;;;;;;5.90;3.38;;;;;;;12.97;60.31;99750.66;5074919;28;20530;-80
2020/12/11 11:40:02;;;;;;;5.63;2.95;;;;;;;13.06;59.29;99756.00;5075078;28;20386;-77
2020/12/11 11:42:28;;;;;;;5.30;3.33;;;;;;;13.14;59.08;99752.66;5056143;28;20743;-78
2020/12/11 11:45:02;;;;;;;6.28;3.22;;;;;;;13.24;57.53;99751.94;5074525;28;20017;-77
2020/12/11 11:47:28;;;;;;;4.82;2.90;;;;;;;13.13;58.23;99745.72;5072458;28;20020;-78
2020/12/11 11:55:26;;;;;;;3.80;2.50;;;;;;;12.62;58.61;99743.19;5009843;28;20068;-76
2020/12/11 11:57:51;;;;;;;4.25;2.45;;;;;;;12.71;58.75;99740.78;5008100;28;20033;-79
2020/12/11 12:00:17;;;;;;;5.35;3.35;;;;;;;12.66;59.50;99738.94;5008724;28;20050;-74
2020/12/11 12:02:42;;;;;;;6.38;3.20;;;;;;;12.65;59.33;99751.03;5011753;28;20033;-74
2020/12/11 12:05:11;;;;;;;4.28;2.88;;;;;;;12.59;58.58;99744.00;5011452;28;20091;-77
2020/12/11 12:07:39;;;;;;;4.72;2.90;;;;;;;12.69;58.81;99750.22;5011571;28;20076;-78
2020/12/11 12:10:06;;;;;;;6.07;2.60;;;;;;;12.59;59.26;99733.66;5011892;28;20053;-80
2020/12/11 12:12:37;;;;;;;4.93;2.67;;;;;;;12.75;56.84;99736.50;5011326;28;20061;-84
2020/12/11 12:15:02;;;;;;;4.25;2.85;;;;;;;12.64;56.30;99725.97;5011645;28;20040;-78
2020/12/11 12:17:35;;;;;;;5.88;2.85;;;;;;;12.72;58.30;99739.94;5011037;28;20112;-75